Search for airport 
image banner adimage banner adimage banner ad
image banner ad

8N8 - Danville

Located in Danville, United States

ICAO - 8N8, IATA -

Data provided by Airmate  

General information

Coordinates: N40°56'54" W76°38'38"
Elevation is 559 feet MSL.
Magnetic variation is -12° East
View others Airports in Pennsylvania

Operational data

Special qualification required
Current time UTC:
Current local time:
Weather at : KSEG - Penn Valley ( 23 km )
METAR: KSEG 091253Z AUTO VRB03KT 10SM CLR 07/03 A3011 RMK AO2 SLP198 T00670033
View NOTAMs / SUP AIP / TFR affecting this airport [VIEW]
Communications frequencies: [VIEW]

Runways:

RWY identifierQFULength (ft)Width (ft)SurfaceLDA (ft)
09300060ASPH
27300060ASPH

Airport contact information

Address: Danville United States

Other aviation service providers

Flight schools

Mountain Aviation

Mountain Aviation

Satellite view of 8N8